Fédération internationale de Ski
Member Section
Print

OFFICIAL RESULTS

Kvitfjell (NOR) 02.03.2012

FIS World Cup - Men's FIS World Cup OFFICIAL RESULTS

Race codex : 0667
Valid for FIS Points : YES



Jury
TD FIS HAPPONEN RISTO FIN
Referee G. HUJARA FIS
Assistant Referee H. SCHMALZL FIS
Chief of Race O.J. BJOERGE NOR
Technical Data
Start Altitude 823 m.
Finish Altitude 182 m.
Vertical Drop 641 m.
Course Length 2574 m.
Homologation Number 9853/12/10
Run 1
Course Setter H. FLATSCHER SUI
Number of Gates 44
Start Time 12:00
 
Show more info»

Competitors

Rank Bib FIS Code Name Year Nation Total Time Diff. FIS Points WC Points
 1  20  511383 FEUZ Beat  1987  SUI   1:32.35     0.00  100
 1  16  50753 KROELL Klaus  1980  AUT   1:32.35     0.00  100
 3  14  421483 JANSRUD Kjetil  1985  NOR   1:32.38  +0.03  0.34  60
 4  22  510030 CUCHE Didier  1974  SUI   1:32.45  +0.10  1.15  50
 5  21  421328 SVINDAL Aksel Lund  1982  NOR   1:32.52  +0.17  1.95  45
 6  4  53902 MAYER Matthias  1990  AUT   1:32.84  +0.49  5.62  40
 7  11  51327 PUCHNER Joachim  1987  AUT   1:32.93  +0.58  6.66  36
 8  26  511313 JANKA Carlo  1986  SUI   1:32.94  +0.59  6.77  32
 9  13  102263 GUAY Erik  1981  CAN   1:32.97  +0.62  7.12  29
 10  5  53817 FRANZ Max  1989  AUT   1:32.98  +0.63  7.23  26
 11  9  50858 STREITBERGER Georg  1981  AUT   1:33.06  +0.71  8.15  24
 12  25  180570 ROMAR Andreas  1989  FIN   1:33.07  +0.72  8.26  22
 13  10  102271 HUDEC Jan  1981  CAN   1:33.21  +0.86  9.87  20
 14  7  191591 BERTRAND Yannick  1980  FRA   1:33.31  +0.96  11.02  18
 15  29  191740 CLAREY Johan  1981  FRA   1:33.37  +1.02  11.71  16
 16  18  50742 REICHELT Hannes  1980  AUT   1:33.40  +1.05  12.05  15
 17  12  293006 INNERHOFER Christof  1984  ITA   1:33.52  +1.17  13.43  14
 18  57  560447 SPORN Andrej  1981  SLO   1:33.60  +1.25  14.35  13
 19  43  193034 BOUILLOT Alexandre  1985  FRA   1:33.93  +1.58  18.14  12
 20  23  501076 OLSSON Hans  1984  SWE   1:33.94  +1.59  18.25  11
 21  17  192746 THEAUX Adrien  1984  FRA   1:33.99  +1.64  18.82  10
 22  35  51332 SCHEIBER Florian  1987  AUT   1:34.04  +1.69  19.40  9
 23  2  292514 HEEL Werner  1982  ITA   1:34.07  +1.72  19.74  8
 24  30  510727 DEFAGO Didier  1977  SUI   1:34.10  +1.75  20.09  7
 25  47  561067 PERKO Rok  1985  SLO   1:34.12  +1.77  20.32  6
 26  62  291459 PARIS Dominik  1989  ITA   1:34.13  +1.78  20.43  5
 27  49  53968 BERTHOLD Frederic  1991  AUT   1:34.16  +1.81  20.78  4
 28  28  530939 WEIBRECHT Andrew  1986  USA   1:34.18  +1.83  21.00  3
 29  37  191746 DE TESSIERES Gauthier  1981  FRA   1:34.21  +1.86  21.35  2
 29  6  292455 FILL Peter  1982  ITA   1:34.21  +1.86  21.35  2
 31  8  51215 BAUMANN Romed  1986  AUT   1:34.25  +1.90  21.81  0
 32  40  561216 KLINE Bostjan  1991  SLO   1:34.28  +1.93  22.15  0
 33  24  201606 KEPPLER Stephan  1983  GER   1:34.30  +1.95  22.38  0
 34  59  510767 HOFFMANN Ambrosi  1977  SUI   1:34.48  +2.13  24.45  0
 35  41  561087 MARKIC Gasper  1986  SLO   1:34.63  +2.28  26.17  0
 36  15  510890 ZURBRIGGEN Silvan  1981  SUI   1:34.66  +2.31  26.51  0
 37  61  511142 LUEOEND Vitus  1984  SUI   1:34.68  +2.33  26.74  0
 38  34  533131 SULLIVAN Marco  1980  USA   1:34.82  +2.47  28.35  0
 39  27  510747 GRUENENFELDER Tobias  1977  SUI   1:34.96  +2.61  29.96  0
 40  63  103271 THOMSEN Benjamin  1987  CAN   1:35.00  +2.65  30.42  0
 41  50  100558 COOK Dustin  1989  CAN   1:35.08  +2.73  31.34  0
 41  38  380292 ZRNCIC-DIM Natko  1986  CRO   1:35.08  +2.73  31.34  0
 41  3  531799 FORD Tommy  1989  USA   1:35.08  +2.73  31.34  0
 44  56  201811 STECHERT Tobias  1985  GER   1:35.09  +2.74  31.45  0
 45  32  192504 MERMILLOD BLONDIN Thomas  1984  FRA   1:35.10  +2.75  31.56  0
 46  45  500150 JAERBYN Patrik  1969  SWE   1:35.12  +2.77  31.79  0
 47  54  421650 BJERKESTRAND Iver  1987  NOR   1:35.19  +2.84  32.60  0
 48  39  531452 BIESEMEYER Thomas  1989  USA   1:35.22  +2.87  32.94  0
 49  52  290998 STAUDACHER Patrick  1980  ITA   1:35.24  +2.89  33.17  0
 50  44  511634 SPESCHA Christian  1989  SUI   1:35.30  +2.95  33.86  0
 51  65  501324 OLSSON Matts  1988  SWE   1:35.36  +3.01  34.55  0
 52  42  200379 SANDER Andreas  1989  GER   1:35.70  +3.35  38.45  0
 53  51  202059 FERSTL Josef  1988  GER   1:35.74  +3.39  38.91  0
 54  53  501230 ERICSSON Daniel  1987  SWE   1:37.06  +4.71  54.06  0
 55  69  550022 RODE Roberts  1987  LAT   1:41.67  +9.32  106.98  0
Did not finish 1st run
   68  170131 FAARUP Christoffer  1992  DEN         0
   66  400281 HEEK, VAN Marvin  1991  NED         0
   64  191964 POISSON David  1982  FRA         0
   60  561199 SOVIC Tomaz  1990  SLO         0
   58  294277 KLOTZ Siegmar  1987  ITA         0
   55  534939 FISHER Erik  1985  USA         0
   48  530874 GANONG Travis  1988  USA         0
   46  103090 HELIE Louis-Pierre  1986  CAN         0
   36  103512 FRISCH Jeffrey  1984  CAN         0
   33  51401 GRAF Bernhard  1988  AUT         0
   31  102961 DIXON Robbie  1985  CAN         0
   19  50625 RAICH Benjamin  1978  AUT         0
   1  293550 MARSAGLIA Matteo  1985  ITA         0
Did not start 1st run
   67  660021 DANILOCHKIN Yuri  1991  BLR         0

picture  Official timekeeper